sensor_id;sensor_type;location;lat;lon;timestamp;P1;durP1;ratioP1;P2;durP2;ratioP2
8592;SDS011;4334;49.982;8.398;2024-01-30T00:00:26;32.20;;;17.37;;
8592;SDS011;4334;49.982;8.398;2024-01-30T00:02:53;40.53;;;19.07;;
8592;SDS011;4334;49.982;8.398;2024-01-30T00:05:20;38.17;;;18.80;;
8592;SDS011;4334;49.982;8.398;2024-01-30T00:07:47;51.87;;;21.83;;
8592;SDS011;4334;49.982;8.398;2024-01-30T00:10:15;37.83;;;17.33;;
8592;SDS011;4334;49.982;8.398;2024-01-30T00:12:41;139.80;;;45.73;;
8592;SDS011;4334;49.982;8.398;2024-01-30T00:15:08;59.80;;;25.60;;
8592;SDS011;4334;49.982;8.398;2024-01-30T00:17:35;29.80;;;16.13;;
8592;SDS011;4334;49.982;8.398;2024-01-30T00:20:02;27.00;;;16.37;;
8592;SDS011;4334;49.982;8.398;2024-01-30T00:22:30;45.60;;;21.10;;
8592;SDS011;4334;49.982;8.398;2024-01-30T00:24:57;48.20;;;22.37;;
8592;SDS011;4334;49.982;8.398;2024-01-30T00:27:25;40.80;;;21.40;;
8592;SDS011;4334;49.982;8.398;2024-01-30T00:29:52;38.83;;;18.73;;
8592;SDS011;4334;49.982;8.398;2024-01-30T00:32:19;31.33;;;17.03;;
8592;SDS011;4334;49.982;8.398;2024-01-30T00:34:46;32.50;;;17.27;;
8592;SDS011;4334;49.982;8.398;2024-01-30T00:37:12;32.10;;;16.63;;
8592;SDS011;4334;49.982;8.398;2024-01-30T00:39:39;37.23;;;17.07;;
8592;SDS011;4334;49.982;8.398;2024-01-30T00:42:06;35.33;;;17.70;;
8592;SDS011;4334;49.982;8.398;2024-01-30T00:44:35;30.07;;;15.47;;
8592;SDS011;4334;49.982;8.398;2024-01-30T00:47:03;32.40;;;16.27;;
8592;SDS011;4334;49.982;8.398;2024-01-30T00:49:30;33.40;;;16.33;;
8592;SDS011;4334;49.982;8.398;2024-01-30T00:51:57;30.97;;;16.20;;
8592;SDS011;4334;49.982;8.398;2024-01-30T00:54:24;30.80;;;15.77;;
8592;SDS011;4334;49.982;8.398;2024-01-30T00:56:50;34.67;;;17.93;;
8592;SDS011;4334;49.982;8.398;2024-01-30T00:59:17;29.37;;;17.17;;
8592;SDS011;4334;49.982;8.398;2024-01-30T01:01:45;32.30;;;15.83;;
8592;SDS011;4334;49.982;8.398;2024-01-30T01:04:12;29.63;;;15.73;;
8592;SDS011;4334;49.982;8.398;2024-01-30T01:06:39;31.13;;;16.43;;
8592;SDS011;4334;49.982;8.398;2024-01-30T01:09:07;35.80;;;16.77;;
8592;SDS011;4334;49.982;8.398;2024-01-30T01:11:34;35.83;;;16.40;;
8592;SDS011;4334;49.982;8.398;2024-01-30T01:14:01;31.53;;;15.67;;
8592;SDS011;4334;49.982;8.398;2024-01-30T01:16:28;28.20;;;15.90;;
8592;SDS011;4334;49.982;8.398;2024-01-30T01:18:56;34.17;;;17.10;;
8592;SDS011;4334;49.982;8.398;2024-01-30T01:21:23;30.03;;;15.43;;
8592;SDS011;4334;49.982;8.398;2024-01-30T01:23:49;29.87;;;16.20;;
8592;SDS011;4334;49.982;8.398;2024-01-30T01:26:16;32.67;;;17.37;;
8592;SDS011;4334;49.982;8.398;2024-01-30T01:28:43;34.80;;;17.10;;
8592;SDS011;4334;49.982;8.398;2024-01-30T01:31:09;35.23;;;16.77;;
8592;SDS011;4334;49.982;8.398;2024-01-30T01:33:36;29.80;;;15.93;;
8592;SDS011;4334;49.982;8.398;2024-01-30T01:36:05;39.10;;;17.07;;
8592;SDS011;4334;49.982;8.398;2024-01-30T01:38:31;31.90;;;16.50;;
8592;SDS011;4334;49.982;8.398;2024-01-30T01:40:58;31.13;;;15.60;;
8592;SDS011;4334;49.982;8.398;2024-01-30T01:43:25;30.60;;;17.13;;
8592;SDS011;4334;49.982;8.398;2024-01-30T01:45:52;27.80;;;15.07;;
8592;SDS011;4334;49.982;8.398;2024-01-30T01:48:18;29.70;;;16.13;;
8592;SDS011;4334;49.982;8.398;2024-01-30T01:50:46;26.13;;;16.00;;
8592;SDS011;4334;49.982;8.398;2024-01-30T01:53:15;30.00;;;15.90;;
8592;SDS011;4334;49.982;8.398;2024-01-30T01:55:42;33.50;;;17.30;;
8592;SDS011;4334;49.982;8.398;2024-01-30T01:58:09;33.10;;;17.80;;
8592;SDS011;4334;49.982;8.398;2024-01-30T02:00:37;34.13;;;17.43;;
8592;SDS011;4334;49.982;8.398;2024-01-30T02:03:06;33.77;;;16.47;;
8592;SDS011;4334;49.982;8.398;2024-01-30T02:05:36;30.63;;;16.77;;
8592;SDS011;4334;49.982;8.398;2024-01-30T02:08:03;33.70;;;16.40;;
8592;SDS011;4334;49.982;8.398;2024-01-30T02:10:32;27.07;;;14.37;;
8592;SDS011;4334;49.982;8.398;2024-01-30T02:12:58;34.70;;;16.47;;
8592;SDS011;4334;49.982;8.398;2024-01-30T02:15:25;28.53;;;15.00;;
8592;SDS011;4334;49.982;8.398;2024-01-30T02:17:52;33.07;;;15.97;;
8592;SDS011;4334;49.982;8.398;2024-01-30T02:20:19;24.40;;;14.67;;
8592;SDS011;4334;49.982;8.398;2024-01-30T02:22:47;29.10;;;16.03;;
8592;SDS011;4334;49.982;8.398;2024-01-30T02:25:15;28.90;;;15.40;;
8592;SDS011;4334;49.982;8.398;2024-01-30T02:27:41;25.83;;;15.57;;
8592;SDS011;4334;49.982;8.398;2024-01-30T02:30:08;25.77;;;14.73;;
8592;SDS011;4334;49.982;8.398;2024-01-30T02:32:37;25.90;;;15.23;;
8592;SDS011;4334;49.982;8.398;2024-01-30T02:35:04;30.40;;;15.70;;
8592;SDS011;4334;49.982;8.398;2024-01-30T02:37:31;29.43;;;16.07;;
8592;SDS011;4334;49.982;8.398;2024-01-30T02:39:59;28.83;;;15.70;;
8592;SDS011;4334;49.982;8.398;2024-01-30T02:42:25;29.33;;;15.77;;
8592;SDS011;4334;49.982;8.398;2024-01-30T02:44:52;24.43;;;14.57;;
8592;SDS011;4334;49.982;8.398;2024-01-30T02:47:19;28.77;;;14.90;;
8592;SDS011;4334;49.982;8.398;2024-01-30T02:49:45;25.83;;;14.63;;
8592;SDS011;4334;49.982;8.398;2024-01-30T02:52:12;26.77;;;14.73;;
8592;SDS011;4334;49.982;8.398;2024-01-30T02:54:38;26.80;;;14.63;;
8592;SDS011;4334;49.982;8.398;2024-01-30T02:57:06;29.73;;;14.70;;
8592;SDS011;4334;49.982;8.398;2024-01-30T02:59:33;33.63;;;15.83;;
8592;SDS011;4334;49.982;8.398;2024-01-30T03:02:00;26.73;;;14.37;;
8592;SDS011;4334;49.982;8.398;2024-01-30T03:04:27;26.67;;;14.43;;
8592;SDS011;4334;49.982;8.398;2024-01-30T03:06:55;27.03;;;14.83;;
8592;SDS011;4334;49.982;8.398;2024-01-30T03:09:21;24.67;;;14.60;;
8592;SDS011;4334;49.982;8.398;2024-01-30T03:11:48;29.93;;;14.90;;
8592;SDS011;4334;49.982;8.398;2024-01-30T03:14:16;28.37;;;15.40;;
8592;SDS011;4334;49.982;8.398;2024-01-30T03:16:43;29.23;;;15.73;;
8592;SDS011;4334;49.982;8.398;2024-01-30T03:19:09;29.73;;;15.10;;
8592;SDS011;4334;49.982;8.398;2024-01-30T03:21:36;31.50;;;16.20;;
8592;SDS011;4334;49.982;8.398;2024-01-30T03:24:03;33.80;;;15.13;;
8592;SDS011;4334;49.982;8.398;2024-01-30T03:26:30;30.40;;;16.10;;
8592;SDS011;4334;49.982;8.398;2024-01-30T03:28:57;28.43;;;15.63;;
8592;SDS011;4334;49.982;8.398;2024-01-30T03:31:25;30.53;;;15.80;;
8592;SDS011;4334;49.982;8.398;2024-01-30T03:33:51;26.73;;;14.17;;
8592;SDS011;4334;49.982;8.398;2024-01-30T03:36:18;29.03;;;15.57;;
8592;SDS011;4334;49.982;8.398;2024-01-30T03:38:46;28.97;;;15.43;;
8592;SDS011;4334;49.982;8.398;2024-01-30T03:41:12;27.00;;;14.67;;
8592;SDS011;4334;49.982;8.398;2024-01-30T03:43:39;29.13;;;14.47;;
8592;SDS011;4334;49.982;8.398;2024-01-30T03:46:06;25.50;;;15.50;;
8592;SDS011;4334;49.982;8.398;2024-01-30T03:48:34;31.87;;;15.80;;
8592;SDS011;4334;49.982;8.398;2024-01-30T03:51:01;28.13;;;15.33;;
8592;SDS011;4334;49.982;8.398;2024-01-30T03:53:28;27.97;;;14.90;;
8592;SDS011;4334;49.982;8.398;2024-01-30T03:55:55;36.37;;;16.63;;
8592;SDS011;4334;49.982;8.398;2024-01-30T03:58:25;29.33;;;16.03;;
8592;SDS011;4334;49.982;8.398;2024-01-30T04:00:51;29.63;;;15.37;;
8592;SDS011;4334;49.982;8.398;2024-01-30T04:03:18;27.70;;;15.13;;
8592;SDS011;4334;49.982;8.398;2024-01-30T04:05:46;35.90;;;16.90;;
8592;SDS011;4334;49.982;8.398;2024-01-30T04:08:13;32.73;;;16.00;;
8592;SDS011;4334;49.982;8.398;2024-01-30T04:10:39;31.00;;;16.33;;
8592;SDS011;4334;49.982;8.398;2024-01-30T04:13:06;32.03;;;16.13;;
8592;SDS011;4334;49.982;8.398;2024-01-30T04:15:33;36.37;;;16.80;;
8592;SDS011;4334;49.982;8.398;2024-01-30T04:17:59;30.47;;;15.00;;
8592;SDS011;4334;49.982;8.398;2024-01-30T04:20:26;28.53;;;14.50;;
8592;SDS011;4334;49.982;8.398;2024-01-30T04:22:54;31.70;;;14.40;;
8592;SDS011;4334;49.982;8.398;2024-01-30T04:25:21;26.97;;;14.47;;
8592;SDS011;4334;49.982;8.398;2024-01-30T04:27:48;29.47;;;14.33;;
8592;SDS011;4334;49.982;8.398;2024-01-30T04:30:14;27.93;;;14.20;;
8592;SDS011;4334;49.982;8.398;2024-01-30T04:32:42;24.20;;;14.13;;
8592;SDS011;4334;49.982;8.398;2024-01-30T04:35:09;30.50;;;15.37;;
8592;SDS011;4334;49.982;8.398;2024-01-30T04:37:36;29.67;;;15.33;;
8592;SDS011;4334;49.982;8.398;2024-01-30T04:40:05;34.10;;;16.20;;
8592;SDS011;4334;49.982;8.398;2024-01-30T04:42:33;38.47;;;15.97;;
8592;SDS011;4334;49.982;8.398;2024-01-30T04:45:00;31.10;;;16.23;;
8592;SDS011;4334;49.982;8.398;2024-01-30T04:47:27;33.07;;;17.17;;
8592;SDS011;4334;49.982;8.398;2024-01-30T04:49:54;35.07;;;16.97;;
8592;SDS011;4334;49.982;8.398;2024-01-30T04:52:21;31.30;;;15.83;;
8592;SDS011;4334;49.982;8.398;2024-01-30T04:54:48;35.67;;;17.03;;
8592;SDS011;4334;49.982;8.398;2024-01-30T04:57:16;35.40;;;17.27;;
8592;SDS011;4334;49.982;8.398;2024-01-30T04:59:42;37.33;;;17.53;;
8592;SDS011;4334;49.982;8.398;2024-01-30T05:02:09;36.13;;;18.70;;
8592;SDS011;4334;49.982;8.398;2024-01-30T05:04:36;32.40;;;16.47;;
8592;SDS011;4334;49.982;8.398;2024-01-30T05:07:02;37.03;;;18.53;;
8592;SDS011;4334;49.982;8.398;2024-01-30T05:09:29;33.23;;;16.97;;
8592;SDS011;4334;49.982;8.398;2024-01-30T05:11:56;39.03;;;16.60;;
8592;SDS011;4334;49.982;8.398;2024-01-30T05:14:24;42.60;;;18.37;;
8592;SDS011;4334;49.982;8.398;2024-01-30T05:16:51;33.93;;;18.03;;
8592;SDS011;4334;49.982;8.398;2024-01-30T05:19:18;44.17;;;17.43;;
8592;SDS011;4334;49.982;8.398;2024-01-30T05:21:45;36.77;;;17.57;;
8592;SDS011;4334;49.982;8.398;2024-01-30T05:24:12;46.30;;;18.47;;
8592;SDS011;4334;49.982;8.398;2024-01-30T05:26:38;34.73;;;17.80;;
8592;SDS011;4334;49.982;8.398;2024-01-30T05:29:05;39.03;;;18.43;;
8592;SDS011;4334;49.982;8.398;2024-01-30T05:31:34;49.60;;;19.20;;
8592;SDS011;4334;49.982;8.398;2024-01-30T05:34:00;39.87;;;18.77;;
8592;SDS011;4334;49.982;8.398;2024-01-30T05:36:27;43.33;;;19.37;;
8592;SDS011;4334;49.982;8.398;2024-01-30T05:38:55;57.80;;;20.73;;
8592;SDS011;4334;49.982;8.398;2024-01-30T05:41:22;46.80;;;22.23;;
8592;SDS011;4334;49.982;8.398;2024-01-30T05:43:49;43.03;;;20.27;;
8592;SDS011;4334;49.982;8.398;2024-01-30T05:46:15;40.30;;;19.03;;
8592;SDS011;4334;49.982;8.398;2024-01-30T05:48:43;42.63;;;20.20;;
8592;SDS011;4334;49.982;8.398;2024-01-30T05:51:10;52.70;;;22.17;;
8592;SDS011;4334;49.982;8.398;2024-01-30T05:53:37;43.47;;;19.53;;
8592;SDS011;4334;49.982;8.398;2024-01-30T05:56:04;50.37;;;21.33;;
8592;SDS011;4334;49.982;8.398;2024-01-30T05:58:31;62.37;;;21.47;;
8592;SDS011;4334;49.982;8.398;2024-01-30T06:00:57;60.80;;;21.67;;
8592;SDS011;4334;49.982;8.398;2024-01-30T06:03:24;54.70;;;21.73;;
8592;SDS011;4334;49.982;8.398;2024-01-30T06:05:52;69.83;;;21.33;;
8592;SDS011;4334;49.982;8.398;2024-01-30T06:08:19;58.87;;;20.83;;
8592;SDS011;4334;49.982;8.398;2024-01-30T06:10:45;60.57;;;22.37;;
8592;SDS011;4334;49.982;8.398;2024-01-30T06:13:12;64.37;;;20.60;;
8592;SDS011;4334;49.982;8.398;2024-01-30T06:15:39;66.30;;;20.70;;
8592;SDS011;4334;49.982;8.398;2024-01-30T06:18:06;70.33;;;23.23;;
8592;SDS011;4334;49.982;8.398;2024-01-30T06:20:32;56.17;;;21.43;;
8592;SDS011;4334;49.982;8.398;2024-01-30T06:23:00;51.20;;;20.73;;
8592;SDS011;4334;49.982;8.398;2024-01-30T06:25:27;42.43;;;19.80;;
8592;SDS011;4334;49.982;8.398;2024-01-30T06:27:54;53.03;;;20.97;;
8592;SDS011;4334;49.982;8.398;2024-01-30T06:30:20;54.83;;;20.77;;
8592;SDS011;4334;49.982;8.398;2024-01-30T06:32:47;54.20;;;20.43;;
8592;SDS011;4334;49.982;8.398;2024-01-30T06:35:14;45.27;;;19.00;;
8592;SDS011;4334;49.982;8.398;2024-01-30T06:37:42;48.47;;;20.03;;
8592;SDS011;4334;49.982;8.398;2024-01-30T06:40:11;42.03;;;18.90;;
8592;SDS011;4334;49.982;8.398;2024-01-30T06:42:38;46.70;;;19.20;;
8592;SDS011;4334;49.982;8.398;2024-01-30T06:45:05;46.93;;;19.47;;
8592;SDS011;4334;49.982;8.398;2024-01-30T06:47:33;45.67;;;19.80;;
8592;SDS011;4334;49.982;8.398;2024-01-30T06:49:59;43.33;;;19.90;;
8592;SDS011;4334;49.982;8.398;2024-01-30T06:52:27;39.53;;;17.57;;
8592;SDS011;4334;49.982;8.398;2024-01-30T06:54:53;51.70;;;21.17;;
8592;SDS011;4334;49.982;8.398;2024-01-30T06:57:22;40.70;;;19.77;;
8592;SDS011;4334;49.982;8.398;2024-01-30T06:59:48;47.73;;;21.10;;
8592;SDS011;4334;49.982;8.398;2024-01-30T07:02:15;48.17;;;21.33;;
8592;SDS011;4334;49.982;8.398;2024-01-30T07:04:42;41.90;;;19.50;;
8592;SDS011;4334;49.982;8.398;2024-01-30T07:07:08;38.80;;;19.47;;
8592;SDS011;4334;49.982;8.398;2024-01-30T07:09:37;44.23;;;19.83;;
8592;SDS011;4334;49.982;8.398;2024-01-30T07:12:04;38.83;;;19.63;;
8592;SDS011;4334;49.982;8.398;2024-01-30T07:14:33;37.47;;;17.97;;
8592;SDS011;4334;49.982;8.398;2024-01-30T07:17:00;42.00;;;20.13;;
8592;SDS011;4334;49.982;8.398;2024-01-30T07:19:28;36.10;;;17.57;;
8592;SDS011;4334;49.982;8.398;2024-01-30T07:21:55;34.27;;;19.20;;
8592;SDS011;4334;49.982;8.398;2024-01-30T07:24:21;45.37;;;22.63;;
8592;SDS011;4334;49.982;8.398;2024-01-30T07:26:48;45.67;;;21.60;;
8592;SDS011;4334;49.982;8.398;2024-01-30T07:29:15;55.53;;;21.50;;
8592;SDS011;4334;49.982;8.398;2024-01-30T07:31:43;45.80;;;20.57;;
8592;SDS011;4334;49.982;8.398;2024-01-30T07:34:09;48.37;;;21.23;;
8592;SDS011;4334;49.982;8.398;2024-01-30T07:36:36;46.40;;;19.10;;
8592;SDS011;4334;49.982;8.398;2024-01-30T07:39:03;50.47;;;20.17;;
8592;SDS011;4334;49.982;8.398;2024-01-30T07:41:30;40.13;;;20.17;;
8592;SDS011;4334;49.982;8.398;2024-01-30T07:43:56;42.67;;;20.60;;
8592;SDS011;4334;49.982;8.398;2024-01-30T07:46:23;47.57;;;19.93;;
8592;SDS011;4334;49.982;8.398;2024-01-30T07:48:54;36.13;;;18.23;;
8592;SDS011;4334;49.982;8.398;2024-01-30T07:51:22;41.40;;;19.30;;
8592;SDS011;4334;49.982;8.398;2024-01-30T07:53:48;39.47;;;19.73;;
8592;SDS011;4334;49.982;8.398;2024-01-30T07:56:15;39.70;;;19.43;;
8592;SDS011;4334;49.982;8.398;2024-01-30T07:58:42;40.57;;;19.03;;
8592;SDS011;4334;49.982;8.398;2024-01-30T08:01:09;40.20;;;19.37;;
8592;SDS011;4334;49.982;8.398;2024-01-30T08:03:36;39.53;;;19.73;;
8592;SDS011;4334;49.982;8.398;2024-01-30T08:06:06;39.13;;;19.80;;
8592;SDS011;4334;49.982;8.398;2024-01-30T08:08:33;38.83;;;20.30;;
8592;SDS011;4334;49.982;8.398;2024-01-30T08:10:59;43.03;;;19.97;;
8592;SDS011;4334;49.982;8.398;2024-01-30T08:13:26;38.43;;;20.53;;
8592;SDS011;4334;49.982;8.398;2024-01-30T08:15:53;48.07;;;22.23;;
8592;SDS011;4334;49.982;8.398;2024-01-30T08:18:20;44.03;;;22.90;;
8592;SDS011;4334;49.982;8.398;2024-01-30T08:20:46;45.23;;;22.43;;
8592;SDS011;4334;49.982;8.398;2024-01-30T08:23:15;49.53;;;22.87;;
8592;SDS011;4334;49.982;8.398;2024-01-30T08:25:42;45.00;;;24.00;;
8592;SDS011;4334;49.982;8.398;2024-01-30T08:28:08;41.30;;;21.70;;
8592;SDS011;4334;49.982;8.398;2024-01-30T08:30:35;48.03;;;23.63;;
8592;SDS011;4334;49.982;8.398;2024-01-30T08:33:04;44.10;;;22.80;;
8592;SDS011;4334;49.982;8.398;2024-01-30T08:35:31;50.50;;;23.97;;
8592;SDS011;4334;49.982;8.398;2024-01-30T08:37:58;52.83;;;24.87;;
8592;SDS011;4334;49.982;8.398;2024-01-30T08:40:26;43.90;;;22.60;;
8592;SDS011;4334;49.982;8.398;2024-01-30T08:42:53;43.23;;;23.53;;
8592;SDS011;4334;49.982;8.398;2024-01-30T08:45:20;47.13;;;25.40;;
8592;SDS011;4334;49.982;8.398;2024-01-30T08:47:47;50.67;;;27.07;;
8592;SDS011;4334;49.982;8.398;2024-01-30T08:50:14;47.47;;;26.50;;
8592;SDS011;4334;49.982;8.398;2024-01-30T08:52:40;48.63;;;24.63;;
8592;SDS011;4334;49.982;8.398;2024-01-30T08:55:07;41.37;;;22.87;;
8592;SDS011;4334;49.982;8.398;2024-01-30T08:57:35;45.80;;;23.43;;
8592;SDS011;4334;49.982;8.398;2024-01-30T09:00:02;46.67;;;23.27;;
8592;SDS011;4334;49.982;8.398;2024-01-30T09:02:31;38.87;;;22.67;;
8592;SDS011;4334;49.982;8.398;2024-01-30T09:04:58;40.43;;;22.63;;
8592;SDS011;4334;49.982;8.398;2024-01-30T09:07:25;42.00;;;22.70;;
8592;SDS011;4334;49.982;8.398;2024-01-30T09:09:51;44.43;;;23.23;;
8592;SDS011;4334;49.982;8.398;2024-01-30T09:12:18;48.97;;;24.40;;
8592;SDS011;4334;49.982;8.398;2024-01-30T09:14:46;44.13;;;24.20;;
8592;SDS011;4334;49.982;8.398;2024-01-30T09:17:13;44.77;;;21.90;;
8592;SDS011;4334;49.982;8.398;2024-01-30T09:19:40;34.30;;;20.57;;
8592;SDS011;4334;49.982;8.398;2024-01-30T09:22:06;38.37;;;21.00;;
8592;SDS011;4334;49.982;8.398;2024-01-30T09:24:33;34.13;;;19.77;;
8592;SDS011;4334;49.982;8.398;2024-01-30T09:27:00;36.70;;;20.57;;
8592;SDS011;4334;49.982;8.398;2024-01-30T09:29:26;42.10;;;23.90;;
8592;SDS011;4334;49.982;8.398;2024-01-30T09:31:55;42.40;;;25.33;;
8592;SDS011;4334;49.982;8.398;2024-01-30T09:34:21;42.40;;;24.33;;
8592;SDS011;4334;49.982;8.398;2024-01-30T09:36:48;37.67;;;22.07;;
8592;SDS011;4334;49.982;8.398;2024-01-30T09:39:14;40.03;;;20.43;;
8592;SDS011;4334;49.982;8.398;2024-01-30T09:41:44;30.03;;;19.13;;
8592;SDS011;4334;49.982;8.398;2024-01-30T09:44:15;38.63;;;21.27;;
8592;SDS011;4334;49.982;8.398;2024-01-30T09:46:42;39.53;;;22.67;;
8592;SDS011;4334;49.982;8.398;2024-01-30T09:49:10;47.53;;;26.07;;
8592;SDS011;4334;49.982;8.398;2024-01-30T09:51:37;37.27;;;23.10;;
8592;SDS011;4334;49.982;8.398;2024-01-30T09:54:05;28.70;;;17.33;;
8592;SDS011;4334;49.982;8.398;2024-01-30T09:56:34;26.10;;;16.57;;
8592;SDS011;4334;49.982;8.398;2024-01-30T09:59:01;31.10;;;17.67;;
8592;SDS011;4334;49.982;8.398;2024-01-30T10:01:27;33.13;;;19.47;;
8592;SDS011;4334;49.982;8.398;2024-01-30T10:03:55;38.57;;;21.43;;
8592;SDS011;4334;49.982;8.398;2024-01-30T10:06:23;46.40;;;24.70;;
8592;SDS011;4334;49.982;8.398;2024-01-30T10:08:51;31.33;;;19.20;;
8592;SDS011;4334;49.982;8.398;2024-01-30T10:11:17;46.10;;;24.63;;
8592;SDS011;4334;49.982;8.398;2024-01-30T10:13:44;43.40;;;21.80;;
8592;SDS011;4334;49.982;8.398;2024-01-30T10:16:13;44.47;;;23.67;;
8592;SDS011;4334;49.982;8.398;2024-01-30T10:18:40;25.50;;;16.03;;
8592;SDS011;4334;49.982;8.398;2024-01-30T10:21:08;25.57;;;15.43;;
8592;SDS011;4334;49.982;8.398;2024-01-30T10:23:36;27.40;;;14.83;;
8592;SDS011;4334;49.982;8.398;2024-01-30T10:26:04;26.87;;;14.80;;
8592;SDS011;4334;49.982;8.398;2024-01-30T10:28:31;27.43;;;13.00;;
8592;SDS011;4334;49.982;8.398;2024-01-30T10:30:58;19.43;;;12.93;;
8592;SDS011;4334;49.982;8.398;2024-01-30T10:33:25;24.03;;;13.97;;
8592;SDS011;4334;49.982;8.398;2024-01-30T10:35:53;25.40;;;13.73;;
8592;SDS011;4334;49.982;8.398;2024-01-30T10:38:23;22.70;;;14.07;;
8592;SDS011;4334;49.982;8.398;2024-01-30T10:40:56;22.83;;;13.77;;
8592;SDS011;4334;49.982;8.398;2024-01-30T10:43:23;20.27;;;13.00;;
8592;SDS011;4334;49.982;8.398;2024-01-30T10:45:55;23.97;;;13.90;;
8592;SDS011;4334;49.982;8.398;2024-01-30T10:48:26;23.50;;;13.13;;
8592;SDS011;4334;49.982;8.398;2024-01-30T10:50:56;23.03;;;13.10;;
8592;SDS011;4334;49.982;8.398;2024-01-30T10:53:26;23.77;;;14.30;;
8592;SDS011;4334;49.982;8.398;2024-01-30T10:55:53;20.53;;;13.00;;
8592;SDS011;4334;49.982;8.398;2024-01-30T10:58:23;19.53;;;13.63;;
8592;SDS011;4334;49.982;8.398;2024-01-30T11:00:51;22.27;;;12.27;;
8592;SDS011;4334;49.982;8.398;2024-01-30T11:03:18;17.70;;;12.33;;
8592;SDS011;4334;49.982;8.398;2024-01-30T11:05:48;20.90;;;13.17;;
8592;SDS011;4334;49.982;8.398;2024-01-30T11:08:22;16.27;;;11.57;;
8592;SDS011;4334;49.982;8.398;2024-01-30T11:10:49;25.33;;;12.93;;
8592;SDS011;4334;49.982;8.398;2024-01-30T11:13:21;18.30;;;11.83;;
8592;SDS011;4334;49.982;8.398;2024-01-30T11:15:48;19.53;;;11.83;;
8592;SDS011;4334;49.982;8.398;2024-01-30T11:18:22;16.93;;;11.10;;
8592;SDS011;4334;49.982;8.398;2024-01-30T11:20:49;16.93;;;10.93;;
8592;SDS011;4334;49.982;8.398;2024-01-30T11:23:16;16.40;;;11.40;;
8592;SDS011;4334;49.982;8.398;2024-01-30T11:25:43;19.70;;;10.47;;
8592;SDS011;4334;49.982;8.398;2024-01-30T11:28:13;18.50;;;11.10;;
8592;SDS011;4334;49.982;8.398;2024-01-30T11:30:42;17.23;;;9.87;;
8592;SDS011;4334;49.982;8.398;2024-01-30T11:33:09;18.00;;;10.63;;
8592;SDS011;4334;49.982;8.398;2024-01-30T11:35:37;16.27;;;10.60;;
8592;SDS011;4334;49.982;8.398;2024-01-30T11:38:05;16.97;;;9.63;;
8592;SDS011;4334;49.982;8.398;2024-01-30T11:40:33;16.90;;;10.23;;
8592;SDS011;4334;49.982;8.398;2024-01-30T11:43:01;12.67;;;9.53;;
8592;SDS011;4334;49.982;8.398;2024-01-30T11:45:29;19.40;;;10.77;;
8592;SDS011;4334;49.982;8.398;2024-01-30T11:47:58;15.33;;;9.97;;
8592;SDS011;4334;49.982;8.398;2024-01-30T11:50:28;14.57;;;10.00;;
8592;SDS011;4334;49.982;8.398;2024-01-30T11:52:55;17.40;;;10.47;;
8592;SDS011;4334;49.982;8.398;2024-01-30T11:55:23;12.87;;;9.47;;
8592;SDS011;4334;49.982;8.398;2024-01-30T11:57:50;14.03;;;9.67;;
8592;SDS011;4334;49.982;8.398;2024-01-30T12:00:17;16.60;;;10.83;;
8592;SDS011;4334;49.982;8.398;2024-01-30T12:02:48;14.97;;;9.60;;
8592;SDS011;4334;49.982;8.398;2024-01-30T12:05:18;13.57;;;9.93;;
8592;SDS011;4334;49.982;8.398;2024-01-30T12:07:45;14.23;;;9.80;;
8592;SDS011;4334;49.982;8.398;2024-01-30T12:10:12;17.60;;;11.17;;
8592;SDS011;4334;49.982;8.398;2024-01-30T12:12:40;19.53;;;11.03;;
8592;SDS011;4334;49.982;8.398;2024-01-30T12:15:09;25.20;;;13.47;;
8592;SDS011;4334;49.982;8.398;2024-01-30T12:17:36;19.47;;;10.83;;
8592;SDS011;4334;49.982;8.398;2024-01-30T12:20:04;19.60;;;10.40;;
8592;SDS011;4334;49.982;8.398;2024-01-30T12:22:33;18.40;;;10.63;;
8592;SDS011;4334;49.982;8.398;2024-01-30T12:25:03;17.30;;;10.43;;
8592;SDS011;4334;49.982;8.398;2024-01-30T12:27:31;18.23;;;9.50;;
8592;SDS011;4334;49.982;8.398;2024-01-30T12:29:58;19.27;;;10.50;;
8592;SDS011;4334;49.982;8.398;2024-01-30T12:32:25;20.07;;;10.67;;
8592;SDS011;4334;49.982;8.398;2024-01-30T12:34:54;17.27;;;10.07;;
8592;SDS011;4334;49.982;8.398;2024-01-30T12:37:21;21.53;;;10.53;;
8592;SDS011;4334;49.982;8.398;2024-01-30T12:39:51;14.80;;;8.97;;
8592;SDS011;4334;49.982;8.398;2024-01-30T12:42:19;12.23;;;9.33;;
8592;SDS011;4334;49.982;8.398;2024-01-30T12:44:46;13.63;;;8.37;;
8592;SDS011;4334;49.982;8.398;2024-01-30T12:47:13;13.13;;;9.00;;
8592;SDS011;4334;49.982;8.398;2024-01-30T12:49:41;15.70;;;8.80;;
8592;SDS011;4334;49.982;8.398;2024-01-30T12:52:09;12.73;;;9.73;;
8592;SDS011;4334;49.982;8.398;2024-01-30T12:54:36;14.23;;;9.73;;
8592;SDS011;4334;49.982;8.398;2024-01-30T12:57:04;12.43;;;9.60;;
8592;SDS011;4334;49.982;8.398;2024-01-30T12:59:31;14.47;;;9.87;;
8592;SDS011;4334;49.982;8.398;2024-01-30T13:01:59;15.23;;;10.07;;
8592;SDS011;4334;49.982;8.398;2024-01-30T13:04:26;11.37;;;8.93;;
8592;SDS011;4334;49.982;8.398;2024-01-30T13:06:53;14.97;;;9.30;;
8592;SDS011;4334;49.982;8.398;2024-01-30T13:09:20;13.00;;;9.23;;
8592;SDS011;4334;49.982;8.398;2024-01-30T13:11:47;17.87;;;9.83;;
8592;SDS011;4334;49.982;8.398;2024-01-30T13:14:15;13.63;;;10.07;;
8592;SDS011;4334;49.982;8.398;2024-01-30T13:16:41;16.83;;;10.10;;
8592;SDS011;4334;49.982;8.398;2024-01-30T13:19:08;12.77;;;9.80;;
8592;SDS011;4334;49.982;8.398;2024-01-30T13:21:35;16.80;;;10.30;;
8592;SDS011;4334;49.982;8.398;2024-01-30T13:24:01;14.83;;;10.03;;
8592;SDS011;4334;49.982;8.398;2024-01-30T13:26:28;14.33;;;11.30;;
8592;SDS011;4334;49.982;8.398;2024-01-30T13:28:58;19.00;;;13.20;;
8592;SDS011;4334;49.982;8.398;2024-01-30T13:31:26;17.47;;;11.73;;
8592;SDS011;4334;49.982;8.398;2024-01-30T13:33:53;17.03;;;11.70;;
8592;SDS011;4334;49.982;8.398;2024-01-30T13:36:20;17.87;;;12.13;;
8592;SDS011;4334;49.982;8.398;2024-01-30T13:38:48;17.77;;;12.17;;
8592;SDS011;4334;49.982;8.398;2024-01-30T13:41:14;17.17;;;11.00;;
8592;SDS011;4334;49.982;8.398;2024-01-30T13:43:41;17.40;;;11.93;;
8592;SDS011;4334;49.982;8.398;2024-01-30T13:46:09;17.30;;;11.43;;
8592;SDS011;4334;49.982;8.398;2024-01-30T13:48:37;17.40;;;11.47;;
8592;SDS011;4334;49.982;8.398;2024-01-30T13:51:04;17.87;;;11.83;;
8592;SDS011;4334;49.982;8.398;2024-01-30T13:53:31;14.53;;;10.97;;
8592;SDS011;4334;49.982;8.398;2024-01-30T13:55:57;15.80;;;11.23;;
8592;SDS011;4334;49.982;8.398;2024-01-30T13:58:24;19.23;;;10.63;;
8592;SDS011;4334;49.982;8.398;2024-01-30T14:00:52;14.50;;;10.57;;
8592;SDS011;4334;49.982;8.398;2024-01-30T14:03:19;14.97;;;10.67;;
8592;SDS011;4334;49.982;8.398;2024-01-30T14:05:47;15.87;;;10.87;;
8592;SDS011;4334;49.982;8.398;2024-01-30T14:08:14;18.47;;;11.20;;
8592;SDS011;4334;49.982;8.398;2024-01-30T14:10:41;16.63;;;11.17;;
8592;SDS011;4334;49.982;8.398;2024-01-30T14:13:08;18.83;;;10.90;;
8592;SDS011;4334;49.982;8.398;2024-01-30T14:15:36;20.10;;;11.47;;
8592;SDS011;4334;49.982;8.398;2024-01-30T14:18:03;16.17;;;10.47;;
8592;SDS011;4334;49.982;8.398;2024-01-30T14:20:33;16.10;;;11.13;;
8592;SDS011;4334;49.982;8.398;2024-01-30T14:23:01;21.13;;;11.53;;
8592;SDS011;4334;49.982;8.398;2024-01-30T14:25:28;18.20;;;11.07;;
8592;SDS011;4334;49.982;8.398;2024-01-30T14:27:54;20.83;;;11.40;;
8592;SDS011;4334;49.982;8.398;2024-01-30T14:30:21;17.33;;;10.83;;
8592;SDS011;4334;49.982;8.398;2024-01-30T14:32:48;15.40;;;9.90;;
8592;SDS011;4334;49.982;8.398;2024-01-30T14:35:14;19.03;;;10.80;;
8592;SDS011;4334;49.982;8.398;2024-01-30T14:37:41;14.07;;;10.17;;
8592;SDS011;4334;49.982;8.398;2024-01-30T14:40:09;15.43;;;10.40;;
8592;SDS011;4334;49.982;8.398;2024-01-30T14:42:36;14.00;;;10.07;;
8592;SDS011;4334;49.982;8.398;2024-01-30T14:45:03;17.10;;;10.97;;
8592;SDS011;4334;49.982;8.398;2024-01-30T14:47:31;13.73;;;10.40;;